South Milford, IN (46786)

5:51 PM EDT on August 03, 2015 (GMT -0400)
Adams Lake | | Change Station
CLOSE
Current Station
Personal Weather Station
Location: Wolcottville, IN
Elevation: 955 ft
Nearby Weather Stations

Elev 955 ft 41.56 °N, 85.32 °W | Updated 2 minutes ago

Clear
Clear
77.5 °F
Feels Like 79 °F
N
7.3
Wind Variable Wind from NNW

Today
High -- | Low -- °F
--% Chance of Precip.
Yesterday
High -- | Low -- °F
Precip. -- in
6:37 AM 8:56 PM
Waning Gibbous, 84% visible
Pressure 29.83 in
Visibility 10.0 miles
Clouds Clear
Heat Index 79 °F
Dew Point 53 °F
Humidity 42%
Rainfall 0.66 in
Snow Depth Not available.
UV 4 out of 12
Pollen 3.40 out of 12
Air Quality Not available.
Flu Activity Not available.
METAR KANQ 032135Z AUTO 30012KT 10SM CLR 26/13 A2983 RMK

More Conditions Fewer Conditions

Pressure 29.83 in
Visibility 10.0 miles
Clouds Clear
Heat Index 79 °F
Dew Point 53 °F
Humidity 42%
Rainfall 0.66 in
Snow Depth Not available.
UV 4 out of 12
Pollen 3.40 out of 12
Air Quality Not available.
Flu Activity Not available.
METAR KANQ 032135Z AUTO 30012KT 10SM CLR 26/13 A2983 RMK

More Conditions Fewer Conditions

10-Day Weather Forecast

×

Almanac

Astronomy

Aug. 03, 2015 Rise Set
Actual Time
Civil Twilight
Nautical Twilight
Astronomical Twilight
Moon
Length of Visible Light
Length of Day
Tomorrow will be .
, % of the Moon is Illuminated

Today's Extremes

State Highs State Lows

Community

WunderPhotos

Upload Photos

1,843,770 photos uploaded!

WunderBlogs® & News

Nearby

Air Quality

  Air Quality AQ Index Pollutant
Not available.

Snow Depth

Station Depth Elevation

Earthquake Activity

City Distance Mag. Time & Date
Minimum magnitude displayed is 2.5.

Coastal Water Temperatures

Place Temperature

Stations

Nearby Weather Stations

Station Location Temp. Windchill Dew Point Humidity Wind Precip. Elev Updated Type